sensor_id;sensor_type;location;lat;lon;timestamp;pressure;altitude;pressure_sealevel;temperature;humidity
75923;BME280;64602;47.542;19.090;2023-04-15T00:02:39;99340.84;;;5.76;87.41
75923;BME280;64602;47.542;19.090;2023-04-15T00:07:42;99334.31;;;5.72;87.38
75923;BME280;64602;47.542;19.090;2023-04-15T00:12:44;99356.56;;;5.85;87.38
75923;BME280;64602;47.542;19.090;2023-04-15T00:17:48;99356.56;;;5.85;87.08
75923;BME280;64602;47.542;19.090;2023-04-15T00:22:51;99354.94;;;5.84;87.21
75923;BME280;64602;47.542;19.090;2023-04-15T00:27:53;99347.38;;;5.81;87.27
75923;BME280;64602;47.542;19.090;2023-04-15T00:32:55;99359.34;;;5.90;87.49
75923;BME280;64602;47.542;19.090;2023-04-15T00:37:57;99342.12;;;5.91;87.61
75923;BME280;64602;47.542;19.090;2023-04-15T00:43:00;99337.16;;;5.83;87.37
75923;BME280;64602;47.542;19.090;2023-04-15T00:48:04;99346.37;;;5.87;87.24
75923;BME280;64602;47.542;19.090;2023-04-15T00:53:06;99352.00;;;5.85;86.90
75923;BME280;64602;47.542;19.090;2023-04-15T00:58:08;99347.66;;;5.84;87.29
75923;BME280;64602;47.542;19.090;2023-04-15T01:03:10;99325.09;;;5.68;87.15
75923;BME280;64602;47.542;19.090;2023-04-15T01:08:12;99325.56;;;5.65;87.37
75923;BME280;64602;47.542;19.090;2023-04-15T01:13:15;99326.72;;;5.69;87.53
75923;BME280;64602;47.542;19.090;2023-04-15T01:18:18;99330.87;;;5.77;87.56
75923;BME280;64602;47.542;19.090;2023-04-15T01:23:21;99331.37;;;5.74;87.43
75923;BME280;64602;47.542;19.090;2023-04-15T01:28:24;99318.34;;;5.66;87.63
75923;BME280;64602;47.542;19.090;2023-04-15T01:33:26;99315.22;;;5.74;87.77
75923;BME280;64602;47.542;19.090;2023-04-15T01:38:28;99335.00;;;5.85;87.84
75923;BME280;64602;47.542;19.090;2023-04-15T01:43:30;99331.37;;;5.74;87.70
75923;BME280;64602;47.542;19.090;2023-04-15T01:48:33;99343.59;;;5.82;87.76
75923;BME280;64602;47.542;19.090;2023-04-15T01:53:35;99333.62;;;5.82;88.05
75923;BME280;64602;47.542;19.090;2023-04-15T01:58:38;99324.25;;;5.85;87.72
75923;BME280;64602;47.542;19.090;2023-04-15T02:03:41;99331.78;;;5.83;87.57
75923;BME280;64602;47.542;19.090;2023-04-15T02:08:43;99343.03;;;5.96;87.65
75923;BME280;64602;47.542;19.090;2023-04-15T02:13:46;99332.09;;;5.86;87.40
75923;BME280;64602;47.542;19.090;2023-04-15T02:18:48;99328.00;;;5.84;87.60
75923;BME280;64602;47.542;19.090;2023-04-15T02:23:50;99339.75;;;5.94;87.77
75923;BME280;64602;47.542;19.090;2023-04-15T02:28:54;99324.59;;;5.88;87.74
75923;BME280;64602;47.542;19.090;2023-04-15T02:33:57;99320.25;;;5.87;87.49
75923;BME280;64602;47.542;19.090;2023-04-15T02:38:59;99330.13;;;5.98;87.64
75923;BME280;64602;47.542;19.090;2023-04-15T02:44:02;99364.81;;;6.12;87.53
75923;BME280;64602;47.542;19.090;2023-04-15T02:49:04;99354.03;;;6.12;86.95
75923;BME280;64602;47.542;19.090;2023-04-15T02:54:06;99342.56;;;5.99;87.11
75923;BME280;64602;47.542;19.090;2023-04-15T02:59:10;99340.41;;;6.02;87.53
75923;BME280;64602;47.542;19.090;2023-04-15T03:04:13;99341.44;;;6.17;87.33
75923;BME280;64602;47.542;19.090;2023-04-15T03:09:15;99345.91;;;6.29;87.59
75923;BME280;64602;47.542;19.090;2023-04-15T03:14:17;99349.91;;;6.26;87.58
75923;BME280;64602;47.542;19.090;2023-04-15T03:19:19;99341.75;;;6.21;87.35
75923;BME280;64602;47.542;19.090;2023-04-15T03:24:21;99338.00;;;6.22;87.43
75923;BME280;64602;47.542;19.090;2023-04-15T03:29:24;99339.91;;;6.22;87.48
75923;BME280;64602;47.542;19.090;2023-04-15T03:34:26;99336.06;;;6.17;87.78
75923;BME280;64602;47.542;19.090;2023-04-15T03:39:28;99323.91;;;6.15;87.58
75923;BME280;64602;47.542;19.090;2023-04-15T03:44:30;99341.59;;;6.28;87.74
75923;BME280;64602;47.542;19.090;2023-04-15T03:49:32;99337.44;;;6.20;87.68
75923;BME280;64602;47.542;19.090;2023-04-15T03:54:34;99353.22;;;6.33;87.52
75923;BME280;64602;47.542;19.090;2023-04-15T03:59:37;99331.88;;;6.27;87.52
75923;BME280;64602;47.542;19.090;2023-04-15T04:04:39;99355.50;;;6.41;87.79
75923;BME280;64602;47.542;19.090;2023-04-15T04:09:41;99341.22;;;6.41;88.09
75923;BME280;64602;47.542;19.090;2023-04-15T04:14:43;99319.91;;;6.39;87.84
75923;BME280;64602;47.542;19.090;2023-04-15T04:19:45;99337.84;;;6.51;87.92
75923;BME280;64602;47.542;19.090;2023-04-15T04:24:47;99330.22;;;6.48;87.83
75923;BME280;64602;47.542;19.090;2023-04-15T04:29:49;99344.41;;;6.60;87.47
75923;BME280;64602;47.542;19.090;2023-04-15T04:34:51;99331.19;;;6.58;87.24
75923;BME280;64602;47.542;19.090;2023-04-15T04:39:54;99334.50;;;6.66;87.41
75923;BME280;64602;47.542;19.090;2023-04-15T04:44:56;99335.63;;;6.70;87.44
75923;BME280;64602;47.542;19.090;2023-04-15T04:49:58;99318.06;;;6.67;87.71
75923;BME280;64602;47.542;19.090;2023-04-15T04:55:00;99333.91;;;6.85;87.52
75923;BME280;64602;47.542;19.090;2023-04-15T05:00:02;99335.16;;;7.00;87.24
75923;BME280;64602;47.542;19.090;2023-04-15T05:05:06;99332.31;;;7.12;86.40
75923;BME280;64602;47.542;19.090;2023-04-15T05:10:08;99340.31;;;7.34;85.73
75923;BME280;64602;47.542;19.090;2023-04-15T05:15:11;99335.56;;;7.46;85.40
75923;BME280;64602;47.542;19.090;2023-04-15T05:20:13;99355.72;;;7.65;84.89
75923;BME280;64602;47.542;19.090;2023-04-15T05:25:15;99330.91;;;7.74;84.48
75923;BME280;64602;47.542;19.090;2023-04-15T05:30:17;99333.22;;;7.92;84.08
75923;BME280;64602;47.542;19.090;2023-04-15T05:35:19;99356.84;;;8.17;83.20
75923;BME280;64602;47.542;19.090;2023-04-15T05:40:22;99352.84;;;8.25;83.31
75923;BME280;64602;47.542;19.090;2023-04-15T05:45:25;99346.63;;;8.24;82.69
75923;BME280;64602;47.542;19.090;2023-04-15T05:50:27;99337.19;;;8.32;82.87
75923;BME280;64602;47.542;19.090;2023-04-15T05:55:29;99360.19;;;8.34;82.84
75923;BME280;64602;47.542;19.090;2023-04-15T06:00:32;99354.50;;;8.31;81.54
75923;BME280;64602;47.542;19.090;2023-04-15T06:05:34;99366.97;;;8.37;81.21
75923;BME280;64602;47.542;19.090;2023-04-15T06:10:36;99371.72;;;8.62;80.45
75923;BME280;64602;47.542;19.090;2023-04-15T06:15:38;99378.78;;;8.68;80.49
75923;BME280;64602;47.542;19.090;2023-04-15T06:20:40;99377.19;;;8.77;79.65
75923;BME280;64602;47.542;19.090;2023-04-15T06:25:43;99371.53;;;8.79;79.18
75923;BME280;64602;47.542;19.090;2023-04-15T06:30:45;99392.19;;;9.16;78.63
75923;BME280;64602;47.542;19.090;2023-04-15T06:35:47;99397.88;;;9.19;77.72
75923;BME280;64602;47.542;19.090;2023-04-15T06:40:50;99390.03;;;9.23;77.43
75923;BME280;64602;47.542;19.090;2023-04-15T06:45:52;99399.03;;;9.54;76.25
75923;BME280;64602;47.542;19.090;2023-04-15T06:50:54;99403.38;;;9.76;75.44
75923;BME280;64602;47.542;19.090;2023-04-15T06:55:57;99411.22;;;9.82;74.77
75923;BME280;64602;47.542;19.090;2023-04-15T07:00:59;99410.69;;;9.55;75.80
75923;BME280;64602;47.542;19.090;2023-04-15T07:06:01;99396.06;;;9.66;75.10
75923;BME280;64602;47.542;19.090;2023-04-15T07:11:07;99400.94;;;9.64;74.55
75923;BME280;64602;47.542;19.090;2023-04-15T07:16:09;99411.25;;;9.93;73.35
75923;BME280;64602;47.542;19.090;2023-04-15T07:21:11;99399.81;;;10.21;73.19
75923;BME280;64602;47.542;19.090;2023-04-15T07:26:13;99418.50;;;10.54;71.73
75923;BME280;64602;47.542;19.090;2023-04-15T07:31:16;99403.28;;;10.68;71.68
75923;BME280;64602;47.542;19.090;2023-04-15T07:36:18;99420.38;;;10.63;70.18
75923;BME280;64602;47.542;19.090;2023-04-15T07:41:20;99425.62;;;11.09;69.45
75923;BME280;64602;47.542;19.090;2023-04-15T07:46:23;99417.41;;;11.20;67.80
75923;BME280;64602;47.542;19.090;2023-04-15T07:51:25;99420.91;;;11.65;67.02
75923;BME280;64602;47.542;19.090;2023-04-15T07:56:27;99426.25;;;11.80;65.97
75923;BME280;64602;47.542;19.090;2023-04-15T08:01:29;99404.25;;;12.40;64.56
75923;BME280;64602;47.542;19.090;2023-04-15T08:06:32;99420.44;;;12.55;63.42
75923;BME280;64602;47.542;19.090;2023-04-15T08:11:34;99421.37;;;12.70;63.49
75923;BME280;64602;47.542;19.090;2023-04-15T08:16:37;99430.88;;;12.91;61.76
75923;BME280;64602;47.542;19.090;2023-04-15T08:21:39;99444.00;;;12.65;61.45
75923;BME280;64602;47.542;19.090;2023-04-15T08:26:41;99424.25;;;12.54;61.40
75923;BME280;64602;47.542;19.090;2023-04-15T08:31:44;99421.97;;;12.37;60.94
75923;BME280;64602;47.542;19.090;2023-04-15T08:36:46;99433.44;;;12.34;61.23
75923;BME280;64602;47.542;19.090;2023-04-15T08:46:52;99445.41;;;12.63;59.36
75923;BME280;64602;47.542;19.090;2023-04-15T08:51:57;99429.78;;;12.44;58.68
75923;BME280;64602;47.542;19.090;2023-04-15T08:57:00;99442.78;;;12.23;59.70
75923;BME280;64602;47.542;19.090;2023-04-15T09:02:03;99435.28;;;12.39;59.72
75923;BME280;64602;47.542;19.090;2023-04-15T09:07:05;99442.13;;;13.09;58.07
75923;BME280;64602;47.542;19.090;2023-04-15T09:12:08;99454.13;;;13.51;55.50
75923;BME280;64602;47.542;19.090;2023-04-15T09:17:11;99442.00;;;13.19;55.57
75923;BME280;64602;47.542;19.090;2023-04-15T09:22:14;99437.34;;;13.62;53.37
75923;BME280;64602;47.542;19.090;2023-04-15T09:27:16;99438.81;;;13.36;55.25
75923;BME280;64602;47.542;19.090;2023-04-15T09:32:18;99451.34;;;13.56;55.10
75923;BME280;64602;47.542;19.090;2023-04-15T09:37:34;99429.16;;;13.62;54.66
75923;BME280;64602;47.542;19.090;2023-04-15T09:42:53;99431.63;;;13.21;54.90
75923;BME280;64602;47.542;19.090;2023-04-15T09:48:13;99433.84;;;13.19;55.70
75923;BME280;64602;47.542;19.090;2023-04-15T09:53:18;99443.84;;;13.23;54.58
75923;BME280;64602;47.542;19.090;2023-04-15T09:58:23;99426.81;;;13.56;54.01
75923;BME280;64602;47.542;19.090;2023-04-15T10:03:27;99443.78;;;13.85;52.71
75923;BME280;64602;47.542;19.090;2023-04-15T10:08:32;99452.13;;;13.75;53.39
75923;BME280;64602;47.542;19.090;2023-04-15T10:13:36;99451.34;;;13.56;54.66
75923;BME280;64602;47.542;19.090;2023-04-15T10:18:43;99448.94;;;12.87;56.68
75923;BME280;64602;47.542;19.090;2023-04-15T10:23:46;99447.03;;;12.34;57.73
75923;BME280;64602;47.542;19.090;2023-04-15T10:28:49;99464.75;;;12.85;56.58
75923;BME280;64602;47.542;19.090;2023-04-15T10:33:52;99460.25;;;12.46;57.52
75923;BME280;64602;47.542;19.090;2023-04-15T10:38:54;99451.13;;;12.32;58.38
75923;BME280;64602;47.542;19.090;2023-04-15T10:44:02;99463.75;;;12.76;58.17
75923;BME280;64602;47.542;19.090;2023-04-15T10:49:13;99463.75;;;12.76;57.51
75923;BME280;64602;47.542;19.090;2023-04-15T10:54:30;99459.87;;;13.06;57.44
75923;BME280;64602;47.542;19.090;2023-04-15T10:59:37;99494.91;;;12.89;55.55
75923;BME280;64602;47.542;19.090;2023-04-15T11:09:54;99482.72;;;12.57;59.02
75923;BME280;64602;47.542;19.090;2023-04-15T11:14:57;99479.81;;;12.19;61.16
75923;BME280;64602;47.542;19.090;2023-04-15T11:19:59;99506.53;;;12.12;62.44
75923;BME280;64602;47.542;19.090;2023-04-15T11:25:02;99504.87;;;11.71;64.04
75923;BME280;64602;47.542;19.090;2023-04-15T11:30:21;99493.47;;;12.14;65.29
75923;BME280;64602;47.542;19.090;2023-04-15T11:35:24;99493.78;;;13.19;59.84
75923;BME280;64602;47.542;19.090;2023-04-15T11:40:29;99489.94;;;14.01;56.92
75923;BME280;64602;47.542;19.090;2023-04-15T11:45:32;99492.63;;;14.52;54.75
75923;BME280;64602;47.542;19.090;2023-04-15T11:50:35;99487.00;;;14.30;53.25
75923;BME280;64602;47.542;19.090;2023-04-15T11:55:46;99498.69;;;13.98;55.12
75923;BME280;64602;47.542;19.090;2023-04-15T12:00:54;99502.19;;;13.84;56.28
75923;BME280;64602;47.542;19.090;2023-04-15T12:06:15;99496.72;;;13.46;55.78
75923;BME280;64602;47.542;19.090;2023-04-15T12:16:22;99516.88;;;13.88;54.43
75923;BME280;64602;47.542;19.090;2023-04-15T12:21:27;99496.13;;;14.39;53.49
75923;BME280;64602;47.542;19.090;2023-04-15T12:26:55;99500.47;;;14.73;53.64
75923;BME280;64602;47.542;19.090;2023-04-15T12:32:14;99514.06;;;15.33;52.32
75923;BME280;64602;47.542;19.090;2023-04-15T12:37:16;99497.94;;;14.63;53.04
75923;BME280;64602;47.542;19.090;2023-04-15T12:42:19;99506.59;;;13.80;56.43
75923;BME280;64602;47.542;19.090;2023-04-15T12:47:21;99509.59;;;13.41;56.90
75923;BME280;64602;47.542;19.090;2023-04-15T12:52:23;99511.63;;;13.06;57.43
75923;BME280;64602;47.542;19.090;2023-04-15T12:57:25;99517.56;;;13.13;57.30
75923;BME280;64602;47.542;19.090;2023-04-15T13:02:28;99522.16;;;12.65;58.46
75923;BME280;64602;47.542;19.090;2023-04-15T13:07:30;99529.97;;;12.71;58.98
75923;BME280;64602;47.542;19.090;2023-04-15T13:12:33;99525.47;;;12.56;58.50
75923;BME280;64602;47.542;19.090;2023-04-15T13:17:37;99520.94;;;12.47;59.16
75923;BME280;64602;47.542;19.090;2023-04-15T13:22:40;99527.06;;;12.63;58.84
75923;BME280;64602;47.542;19.090;2023-04-15T13:27:42;99533.03;;;12.30;59.87
75923;BME280;64602;47.542;19.090;2023-04-15T13:32:44;99527.19;;;12.47;59.32
75923;BME280;64602;47.542;19.090;2023-04-15T13:37:48;99535.03;;;12.54;59.18
75923;BME280;64602;47.542;19.090;2023-04-15T13:42:50;99534.16;;;12.58;59.43
75923;BME280;64602;47.542;19.090;2023-04-15T13:47:54;99535.34;;;12.47;59.80
75923;BME280;64602;47.542;19.090;2023-04-15T13:52:56;99535.44;;;12.37;60.17
75923;BME280;64602;47.542;19.090;2023-04-15T13:57:59;99547.44;;;12.36;60.05
75923;BME280;64602;47.542;19.090;2023-04-15T14:03:01;99556.78;;;12.54;59.32
75923;BME280;64602;47.542;19.090;2023-04-15T14:08:03;99555.81;;;12.39;59.77
75923;BME280;64602;47.542;19.090;2023-04-15T14:13:05;99554.88;;;12.20;60.93
75923;BME280;64602;47.542;19.090;2023-04-15T14:18:07;99561.88;;;12.31;61.20
75923;BME280;64602;47.542;19.090;2023-04-15T14:23:09;99560.09;;;12.51;60.82
75923;BME280;64602;47.542;19.090;2023-04-15T14:28:12;99569.16;;;12.41;61.53
75923;BME280;64602;47.542;19.090;2023-04-15T14:33:14;99570.59;;;12.33;61.27
75923;BME280;64602;47.542;19.090;2023-04-15T14:38:16;99559.31;;;12.06;61.93
75923;BME280;64602;47.542;19.090;2023-04-15T14:43:19;99577.31;;;12.02;62.86
75923;BME280;64602;47.542;19.090;2023-04-15T14:48:21;99575.72;;;11.95;63.36
75923;BME280;64602;47.542;19.090;2023-04-15T14:53:24;99576.56;;;11.91;64.06
75923;BME280;64602;47.542;19.090;2023-04-15T14:58:26;99585.72;;;12.05;63.92
75923;BME280;64602;47.542;19.090;2023-04-15T15:03:28;99577.00;;;12.08;64.04
75923;BME280;64602;47.542;19.090;2023-04-15T15:08:30;99571.00;;;12.06;64.03
75923;BME280;64602;47.542;19.090;2023-04-15T15:13:32;99588.87;;;12.23;63.72
75923;BME280;64602;47.542;19.090;2023-04-15T15:18:35;99594.22;;;11.93;63.87
75923;BME280;64602;47.542;19.090;2023-04-15T15:23:37;99589.06;;;11.82;63.74
75923;BME280;64602;47.542;19.090;2023-04-15T15:28:39;99606.22;;;11.82;63.72
75923;BME280;64602;47.542;19.090;2023-04-15T15:33:41;99610.63;;;11.73;63.58
75923;BME280;64602;47.542;19.090;2023-04-15T15:38:44;99613.06;;;11.69;63.36
75923;BME280;64602;47.542;19.090;2023-04-15T15:43:46;99619.63;;;11.63;61.84
75923;BME280;64602;47.542;19.090;2023-04-15T15:48:48;99631.31;;;11.59;61.72
75923;BME280;64602;47.542;19.090;2023-04-15T15:53:50;99641.38;;;11.58;62.62
75923;BME280;64602;47.542;19.090;2023-04-15T15:58:52;99627.56;;;11.44;63.74
75923;BME280;64602;47.542;19.090;2023-04-15T16:03:54;99636.28;;;11.41;64.32
75923;BME280;64602;47.542;19.090;2023-04-15T16:08:57;99650.66;;;11.47;64.85
75923;BME280;64602;47.542;19.090;2023-04-15T16:13:59;99656.38;;;11.40;65.45
75923;BME280;64602;47.542;19.090;2023-04-15T16:19:01;99661.84;;;11.20;67.06
75923;BME280;64602;47.542;19.090;2023-04-15T16:24:03;99656.69;;;11.03;68.83
75923;BME280;64602;47.542;19.090;2023-04-15T16:29:06;99652.91;;;10.88;71.13
75923;BME280;64602;47.542;19.090;2023-04-15T16:34:08;99670.81;;;10.79;73.88
75923;BME280;64602;47.542;19.090;2023-04-15T16:39:11;99667.00;;;10.70;73.88
75923;BME280;64602;47.542;19.090;2023-04-15T16:44:13;99660.78;;;10.69;74.33
75923;BME280;64602;47.542;19.090;2023-04-15T16:49:15;99661.06;;;10.68;75.04
75923;BME280;64602;47.542;19.090;2023-04-15T16:54:17;99684.66;;;10.73;75.15
75923;BME280;64602;47.542;19.090;2023-04-15T16:59:19;99689.81;;;10.69;75.13
75923;BME280;64602;47.542;19.090;2023-04-15T17:04:22;99695.50;;;10.57;75.27
75923;BME280;64602;47.542;19.090;2023-04-15T17:09:24;99697.94;;;10.54;74.86
75923;BME280;64602;47.542;19.090;2023-04-15T17:14:27;99716.94;;;10.54;74.67
75923;BME280;64602;47.542;19.090;2023-04-15T17:19:29;99707.69;;;10.44;74.83
75923;BME280;64602;47.542;19.090;2023-04-15T17:24:31;99705.75;;;10.35;74.99
75923;BME280;64602;47.542;19.090;2023-04-15T17:29:34;99739.12;;;10.35;75.67
75923;BME280;64602;47.542;19.090;2023-04-15T17:34:36;99729.81;;;10.16;76.56
75923;BME280;64602;47.542;19.090;2023-04-15T17:39:52;99745.28;;;10.20;76.94
75923;BME280;64602;47.542;19.090;2023-04-15T17:44:54;99741.97;;;10.08;77.65
75923;BME280;64602;47.542;19.090;2023-04-15T17:49:56;99755.81;;;10.12;78.25
75923;BME280;64602;47.542;19.090;2023-04-15T17:54:58;99761.75;;;10.03;78.66
75923;BME280;64602;47.542;19.090;2023-04-15T18:00:00;99754.53;;;9.72;81.35
75923;BME280;64602;47.542;19.090;2023-04-15T18:05:03;99760.00;;;9.82;80.88
75923;BME280;64602;47.542;19.090;2023-04-15T18:10:06;99776.25;;;9.82;80.42
75923;BME280;64602;47.542;19.090;2023-04-15T18:15:10;99768.34;;;9.75;80.57
75923;BME280;64602;47.542;19.090;2023-04-15T18:20:12;99772.41;;;9.73;80.28
75923;BME280;64602;47.542;19.090;2023-04-15T18:25:14;99781.34;;;9.73;80.64
75923;BME280;64602;47.542;19.090;2023-04-15T18:30:17;99798.44;;;9.74;81.57
75923;BME280;64602;47.542;19.090;2023-04-15T18:35:19;99814.03;;;9.56;82.57
75923;BME280;64602;47.542;19.090;2023-04-15T18:40:21;99821.00;;;9.47;82.93
75923;BME280;64602;47.542;19.090;2023-04-15T18:45:23;99830.06;;;9.31;84.07
75923;BME280;64602;47.542;19.090;2023-04-15T18:50:26;99839.19;;;9.25;84.15
75923;BME280;64602;47.542;19.090;2023-04-15T18:55:28;99848.66;;;9.22;84.32
75923;BME280;64602;47.542;19.090;2023-04-15T19:00:30;99839.88;;;9.10;84.33
75923;BME280;64602;47.542;19.090;2023-04-15T19:05:32;99864.28;;;9.15;84.57
75923;BME280;64602;47.542;19.090;2023-04-15T19:10:34;99870.72;;;9.09;84.99
75923;BME280;64602;47.542;19.090;2023-04-15T19:15:37;99864.13;;;8.99;85.18
75923;BME280;64602;47.542;19.090;2023-04-15T19:20:39;99876.47;;;8.90;85.11
75923;BME280;64602;47.542;19.090;2023-04-15T19:25:41;99878.13;;;8.91;84.84
75923;BME280;64602;47.542;19.090;2023-04-15T19:30:43;99891.84;;;8.85;85.11
75923;BME280;64602;47.542;19.090;2023-04-15T19:35:45;99900.59;;;8.92;85.13
75923;BME280;64602;47.542;19.090;2023-04-15T19:40:50;99893.53;;;8.69;85.62
75923;BME280;64602;47.542;19.090;2023-04-15T19:45:53;99906.12;;;8.80;85.58
75923;BME280;64602;47.542;19.090;2023-04-15T19:50:56;99905.25;;;8.74;85.11
75923;BME280;64602;47.542;19.090;2023-04-15T19:55:58;99921.50;;;8.74;85.08
75923;BME280;64602;47.542;19.090;2023-04-15T20:01:00;99921.78;;;8.78;85.29
75923;BME280;64602;47.542;19.090;2023-04-15T20:06:03;99914.63;;;8.67;85.17
75923;BME280;64602;47.542;19.090;2023-04-15T20:11:05;99927.72;;;8.75;85.33
75923;BME280;64602;47.542;19.090;2023-04-15T20:16:07;99938.25;;;8.71;85.30
75923;BME280;64602;47.542;19.090;2023-04-15T20:21:09;99930.97;;;8.55;85.54
75923;BME280;64602;47.542;19.090;2023-04-15T20:26:12;99938.25;;;8.71;85.31
